sensor_id;sensor_type;location;lat;lon;timestamp;temperature;humidity
423;DHT22;198;48.752;9.180;2023-07-20T00:01:03;19.10;59.60
423;DHT22;198;48.752;9.180;2023-07-20T00:03:29;19.10;59.00
423;DHT22;198;48.752;9.180;2023-07-20T00:05:54;19.00;58.60
423;DHT22;198;48.752;9.180;2023-07-20T00:08:20;19.00;58.40
423;DHT22;198;48.752;9.180;2023-07-20T00:10:45;19.00;58.30
423;DHT22;198;48.752;9.180;2023-07-20T00:13:12;19.00;57.90
423;DHT22;198;48.752;9.180;2023-07-20T00:15:38;18.90;57.50
423;DHT22;198;48.752;9.180;2023-07-20T00:18:06;18.80;57.50
423;DHT22;198;48.752;9.180;2023-07-20T00:20:32;18.80;57.50
423;DHT22;198;48.752;9.180;2023-07-20T00:22:58;18.80;57.30
423;DHT22;198;48.752;9.180;2023-07-20T00:25:24;18.80;57.50
423;DHT22;198;48.752;9.180;2023-07-20T00:27:50;18.70;57.30
423;DHT22;198;48.752;9.180;2023-07-20T00:30:16;18.60;57.90
423;DHT22;198;48.752;9.180;2023-07-20T00:32:44;18.60;57.50
423;DHT22;198;48.752;9.180;2023-07-20T00:35:10;18.60;57.50
423;DHT22;198;48.752;9.180;2023-07-20T00:37:39;18.50;57.50
423;DHT22;198;48.752;9.180;2023-07-20T00:40:05;18.50;57.50
423;DHT22;198;48.752;9.180;2023-07-20T00:42:32;18.50;57.50
423;DHT22;198;48.752;9.180;2023-07-20T00:44:58;18.40;57.60
423;DHT22;198;48.752;9.180;2023-07-20T00:47:23;18.40;57.80
423;DHT22;198;48.752;9.180;2023-07-20T00:49:50;18.40;58.00
423;DHT22;198;48.752;9.180;2023-07-20T00:52:17;18.30;58.00
423;DHT22;198;48.752;9.180;2023-07-20T00:54:44;18.30;58.30
423;DHT22;198;48.752;9.180;2023-07-20T00:57:09;18.30;58.40
423;DHT22;198;48.752;9.180;2023-07-20T00:59:35;18.30;58.70
423;DHT22;198;48.752;9.180;2023-07-20T01:02:01;18.30;59.10
423;DHT22;198;48.752;9.180;2023-07-20T01:04:27;18.20;59.80
423;DHT22;198;48.752;9.180;2023-07-20T01:07:03;18.10;59.70
423;DHT22;198;48.752;9.180;2023-07-20T01:09:48;18.10;59.80
423;DHT22;198;48.752;9.180;2023-07-20T01:12:27;18.10;60.00
423;DHT22;198;48.752;9.180;2023-07-20T01:14:54;18.00;60.30
423;DHT22;198;48.752;9.180;2023-07-20T01:17:19;18.10;60.60
423;DHT22;198;48.752;9.180;2023-07-20T01:19:45;18.10;60.50
423;DHT22;198;48.752;9.180;2023-07-20T01:25:31;18.00;61.20
423;DHT22;198;48.752;9.180;2023-07-20T01:30:52;17.90;62.20
423;DHT22;198;48.752;9.180;2023-07-20T01:33:20;17.80;62.70
423;DHT22;198;48.752;9.180;2023-07-20T01:35:58;17.80;63.00
423;DHT22;198;48.752;9.180;2023-07-20T01:38:25;17.80;63.10
423;DHT22;198;48.752;9.180;2023-07-20T01:40:51;17.70;63.70
423;DHT22;198;48.752;9.180;2023-07-20T01:43:17;17.70;63.80
423;DHT22;198;48.752;9.180;2023-07-20T01:45:43;17.70;64.10
423;DHT22;198;48.752;9.180;2023-07-20T01:48:09;17.70;64.50
423;DHT22;198;48.752;9.180;2023-07-20T01:50:35;17.70;64.90
423;DHT22;198;48.752;9.180;2023-07-20T01:53:01;17.70;65.10
423;DHT22;198;48.752;9.180;2023-07-20T01:55:26;17.60;65.20
423;DHT22;198;48.752;9.180;2023-07-20T01:57:52;17.60;65.90
423;DHT22;198;48.752;9.180;2023-07-20T02:00:18;17.60;65.90
423;DHT22;198;48.752;9.180;2023-07-20T02:02:49;17.60;66.20
423;DHT22;198;48.752;9.180;2023-07-20T02:05:15;17.60;66.40
423;DHT22;198;48.752;9.180;2023-07-20T02:07:40;17.50;66.70
423;DHT22;198;48.752;9.180;2023-07-20T02:10:06;17.50;66.80
423;DHT22;198;48.752;9.180;2023-07-20T02:12:32;17.50;67.30
423;DHT22;198;48.752;9.180;2023-07-20T02:14:57;17.40;67.70
423;DHT22;198;48.752;9.180;2023-07-20T02:17:23;17.40;67.80
423;DHT22;198;48.752;9.180;2023-07-20T02:19:52;17.40;68.40
423;DHT22;198;48.752;9.180;2023-07-20T02:22:17;17.30;69.40
423;DHT22;198;48.752;9.180;2023-07-20T02:24:43;17.30;68.90
423;DHT22;198;48.752;9.180;2023-07-20T02:27:09;17.20;69.60
423;DHT22;198;48.752;9.180;2023-07-20T02:29:34;17.20;69.60
423;DHT22;198;48.752;9.180;2023-07-20T02:32:01;17.20;69.90
423;DHT22;198;48.752;9.180;2023-07-20T02:34:27;17.20;70.60
423;DHT22;198;48.752;9.180;2023-07-20T02:36:52;17.20;71.10
423;DHT22;198;48.752;9.180;2023-07-20T02:39:18;17.10;71.20
423;DHT22;198;48.752;9.180;2023-07-20T02:41:43;17.10;72.00
423;DHT22;198;48.752;9.180;2023-07-20T02:44:08;17.10;72.70
423;DHT22;198;48.752;9.180;2023-07-20T02:46:34;17.10;72.90
423;DHT22;198;48.752;9.180;2023-07-20T02:49:00;17.10;73.30
423;DHT22;198;48.752;9.180;2023-07-20T02:51:26;17.00;73.30
423;DHT22;198;48.752;9.180;2023-07-20T02:53:52;17.10;73.70
423;DHT22;198;48.752;9.180;2023-07-20T02:56:17;17.00;73.90
423;DHT22;198;48.752;9.180;2023-07-20T02:58:43;17.00;74.30
423;DHT22;198;48.752;9.180;2023-07-20T03:01:09;17.00;74.40
423;DHT22;198;48.752;9.180;2023-07-20T03:03:36;17.00;75.10
423;DHT22;198;48.752;9.180;2023-07-20T03:06:05;17.00;75.40
423;DHT22;198;48.752;9.180;2023-07-20T03:08:30;17.00;75.80
423;DHT22;198;48.752;9.180;2023-07-20T03:10:56;17.00;76.00
423;DHT22;198;48.752;9.180;2023-07-20T03:13:21;17.00;76.70
423;DHT22;198;48.752;9.180;2023-07-20T03:15:47;17.00;76.60
423;DHT22;198;48.752;9.180;2023-07-20T03:18:13;17.00;77.10
423;DHT22;198;48.752;9.180;2023-07-20T03:20:38;17.00;77.00
423;DHT22;198;48.752;9.180;2023-07-20T03:23:04;17.00;77.30
423;DHT22;198;48.752;9.180;2023-07-20T03:25:29;17.00;77.80
423;DHT22;198;48.752;9.180;2023-07-20T03:27:55;17.00;77.90
423;DHT22;198;48.752;9.180;2023-07-20T03:30:20;17.00;78.10
423;DHT22;198;48.752;9.180;2023-07-20T03:32:46;17.00;79.50
423;DHT22;198;48.752;9.180;2023-07-20T03:35:12;17.00;78.60
423;DHT22;198;48.752;9.180;2023-07-20T03:37:38;17.00;79.00
423;DHT22;198;48.752;9.180;2023-07-20T03:40:03;17.00;79.50
423;DHT22;198;48.752;9.180;2023-07-20T03:42:30;16.90;79.70
423;DHT22;198;48.752;9.180;2023-07-20T03:44:55;16.90;79.60
423;DHT22;198;48.752;9.180;2023-07-20T03:47:21;16.90;80.40
423;DHT22;198;48.752;9.180;2023-07-20T03:49:47;16.90;80.70
423;DHT22;198;48.752;9.180;2023-07-20T03:52:13;17.00;80.90
423;DHT22;198;48.752;9.180;2023-07-20T03:54:38;17.00;80.70
423;DHT22;198;48.752;9.180;2023-07-20T03:57:04;17.00;80.70
423;DHT22;198;48.752;9.180;2023-07-20T03:59:29;17.00;81.10
423;DHT22;198;48.752;9.180;2023-07-20T04:01:55;17.00;82.20
423;DHT22;198;48.752;9.180;2023-07-20T04:04:20;17.10;81.60
423;DHT22;198;48.752;9.180;2023-07-20T04:06:46;17.10;81.70
423;DHT22;198;48.752;9.180;2023-07-20T04:09:12;17.10;81.50
423;DHT22;198;48.752;9.180;2023-07-20T04:11:38;17.10;81.80
423;DHT22;198;48.752;9.180;2023-07-20T04:14:04;17.20;81.90
423;DHT22;198;48.752;9.180;2023-07-20T04:16:30;17.30;81.40
423;DHT22;198;48.752;9.180;2023-07-20T04:18:56;17.40;81.10
423;DHT22;198;48.752;9.180;2023-07-20T04:21:22;17.50;80.80
423;DHT22;198;48.752;9.180;2023-07-20T04:23:47;17.60;80.70
423;DHT22;198;48.752;9.180;2023-07-20T04:26:13;17.60;80.30
423;DHT22;198;48.752;9.180;2023-07-20T04:28:40;17.70;79.90
423;DHT22;198;48.752;9.180;2023-07-20T04:31:14;17.80;79.50
423;DHT22;198;48.752;9.180;2023-07-20T04:33:40;17.90;78.80
423;DHT22;198;48.752;9.180;2023-07-20T04:36:06;18.00;78.60
423;DHT22;198;48.752;9.180;2023-07-20T04:38:32;18.00;78.10
423;DHT22;198;48.752;9.180;2023-07-20T04:40:58;18.10;78.30
423;DHT22;198;48.752;9.180;2023-07-20T04:43:23;18.10;78.30
423;DHT22;198;48.752;9.180;2023-07-20T04:45:49;18.30;77.80
423;DHT22;198;48.752;9.180;2023-07-20T04:48:16;18.40;77.10
423;DHT22;198;48.752;9.180;2023-07-20T04:50:44;18.50;76.40
423;DHT22;198;48.752;9.180;2023-07-20T04:53:11;18.60;76.10
423;DHT22;198;48.752;9.180;2023-07-20T04:55:37;18.70;75.70
423;DHT22;198;48.752;9.180;2023-07-20T04:58:03;18.90;75.00
423;DHT22;198;48.752;9.180;2023-07-20T05:00:30;19.00;74.60
423;DHT22;198;48.752;9.180;2023-07-20T05:02:56;19.10;74.30
423;DHT22;198;48.752;9.180;2023-07-20T05:05:21;19.20;73.20
423;DHT22;198;48.752;9.180;2023-07-20T05:07:47;19.30;72.90
423;DHT22;198;48.752;9.180;2023-07-20T05:10:13;19.30;72.30
423;DHT22;198;48.752;9.180;2023-07-20T05:12:38;19.40;72.10
423;DHT22;198;48.752;9.180;2023-07-20T05:15:04;19.30;71.90
423;DHT22;198;48.752;9.180;2023-07-20T05:17:30;19.40;72.60
423;DHT22;198;48.752;9.180;2023-07-20T05:19:55;19.30;72.70
423;DHT22;198;48.752;9.180;2023-07-20T05:22:21;19.40;72.80
423;DHT22;198;48.752;9.180;2023-07-20T05:24:46;19.50;72.20
423;DHT22;198;48.752;9.180;2023-07-20T05:27:12;19.50;72.00
423;DHT22;198;48.752;9.180;2023-07-20T05:29:37;19.50;71.20
423;DHT22;198;48.752;9.180;2023-07-20T05:32:03;19.60;71.20
423;DHT22;198;48.752;9.180;2023-07-20T05:34:29;19.70;71.10
423;DHT22;198;48.752;9.180;2023-07-20T05:36:55;19.80;71.10
423;DHT22;198;48.752;9.180;2023-07-20T05:39:20;20.00;70.20
423;DHT22;198;48.752;9.180;2023-07-20T05:41:46;20.00;69.70
423;DHT22;198;48.752;9.180;2023-07-20T05:44:12;20.10;69.20
423;DHT22;198;48.752;9.180;2023-07-20T05:46:37;20.10;68.50
423;DHT22;198;48.752;9.180;2023-07-20T05:49:03;20.10;68.70
423;DHT22;198;48.752;9.180;2023-07-20T05:51:28;20.10;68.70
423;DHT22;198;48.752;9.180;2023-07-20T05:53:54;20.30;69.10
423;DHT22;198;48.752;9.180;2023-07-20T05:56:19;20.40;68.40
423;DHT22;198;48.752;9.180;2023-07-20T05:58:45;20.50;68.10
423;DHT22;198;48.752;9.180;2023-07-20T06:01:11;20.60;67.70
423;DHT22;198;48.752;9.180;2023-07-20T06:03:36;20.70;67.00
423;DHT22;198;48.752;9.180;2023-07-20T06:06:03;20.80;65.70
423;DHT22;198;48.752;9.180;2023-07-20T06:08:31;20.90;65.50
423;DHT22;198;48.752;9.180;2023-07-20T06:10:57;20.90;65.00
423;DHT22;198;48.752;9.180;2023-07-20T06:13:23;21.00;64.90
423;DHT22;198;48.752;9.180;2023-07-20T06:15:49;21.10;64.80
423;DHT22;198;48.752;9.180;2023-07-20T06:18:14;21.20;63.50
423;DHT22;198;48.752;9.180;2023-07-20T06:20:40;21.30;63.50
423;DHT22;198;48.752;9.180;2023-07-20T06:23:05;21.50;63.10
423;DHT22;198;48.752;9.180;2023-07-20T06:25:31;21.60;62.80
423;DHT22;198;48.752;9.180;2023-07-20T06:27:57;21.70;62.10
423;DHT22;198;48.752;9.180;2023-07-20T06:30:22;21.80;61.00
423;DHT22;198;48.752;9.180;2023-07-20T06:32:48;21.80;60.90
423;DHT22;198;48.752;9.180;2023-07-20T06:35:14;21.90;61.20
423;DHT22;198;48.752;9.180;2023-07-20T06:37:40;22.10;60.80
423;DHT22;198;48.752;9.180;2023-07-20T06:40:06;22.20;59.70
423;DHT22;198;48.752;9.180;2023-07-20T06:42:34;22.40;59.20
423;DHT22;198;48.752;9.180;2023-07-20T06:45:00;22.50;59.60
423;DHT22;198;48.752;9.180;2023-07-20T06:47:25;22.60;59.40
423;DHT22;198;48.752;9.180;2023-07-20T06:49:51;22.70;59.40
423;DHT22;198;48.752;9.180;2023-07-20T06:52:17;22.80;58.60
423;DHT22;198;48.752;9.180;2023-07-20T06:54:42;22.80;58.60
423;DHT22;198;48.752;9.180;2023-07-20T06:57:08;22.80;58.60
423;DHT22;198;48.752;9.180;2023-07-20T06:59:33;22.70;58.50
423;DHT22;198;48.752;9.180;2023-07-20T07:01:59;22.70;58.70
423;DHT22;198;48.752;9.180;2023-07-20T07:04:25;22.60;58.60
423;DHT22;198;48.752;9.180;2023-07-20T07:06:50;22.50;59.50
423;DHT22;198;48.752;9.180;2023-07-20T07:09:16;22.40;59.20
423;DHT22;198;48.752;9.180;2023-07-20T07:11:41;22.20;59.80
423;DHT22;198;48.752;9.180;2023-07-20T07:14:07;21.90;59.80
423;DHT22;198;48.752;9.180;2023-07-20T07:16:32;21.70;61.30
423;DHT22;198;48.752;9.180;2023-07-20T07:18:58;21.50;61.50
423;DHT22;198;48.752;9.180;2023-07-20T07:21:24;21.30;62.10
423;DHT22;198;48.752;9.180;2023-07-20T07:23:50;21.20;64.00
423;DHT22;198;48.752;9.180;2023-07-20T07:26:18;21.10;64.30
423;DHT22;198;48.752;9.180;2023-07-20T07:28:44;21.00;63.60
423;DHT22;198;48.752;9.180;2023-07-20T07:31:10;21.00;63.50
423;DHT22;198;48.752;9.180;2023-07-20T07:33:35;20.90;64.50
423;DHT22;198;48.752;9.180;2023-07-20T07:36:01;20.90;64.50
423;DHT22;198;48.752;9.180;2023-07-20T07:38:26;20.80;64.70
423;DHT22;198;48.752;9.180;2023-07-20T07:40:52;20.80;64.80
423;DHT22;198;48.752;9.180;2023-07-20T07:43:18;20.80;65.70
423;DHT22;198;48.752;9.180;2023-07-20T07:45:43;20.80;64.70
423;DHT22;198;48.752;9.180;2023-07-20T07:48:09;20.80;64.70
423;DHT22;198;48.752;9.180;2023-07-20T07:50:38;20.80;64.20
423;DHT22;198;48.752;9.180;2023-07-20T07:53:05;20.90;64.50
423;DHT22;198;48.752;9.180;2023-07-20T07:55:31;21.00;64.30
423;DHT22;198;48.752;9.180;2023-07-20T07:57:56;21.30;64.30
423;DHT22;198;48.752;9.180;2023-07-20T08:00:22;21.60;62.70
423;DHT22;198;48.752;9.180;2023-07-20T08:02:49;22.00;60.00
423;DHT22;198;48.752;9.180;2023-07-20T08:05:15;22.30;59.50
423;DHT22;198;48.752;9.180;2023-07-20T08:07:41;22.50;59.60
423;DHT22;198;48.752;9.180;2023-07-20T08:10:07;22.80;59.00
423;DHT22;198;48.752;9.180;2023-07-20T08:12:32;23.10;56.90
423;DHT22;198;48.752;9.180;2023-07-20T08:14:58;23.20;55.90
423;DHT22;198;48.752;9.180;2023-07-20T08:17:23;23.40;55.90
423;DHT22;198;48.752;9.180;2023-07-20T08:19:49;23.50;55.90
423;DHT22;198;48.752;9.180;2023-07-20T08:22:15;23.40;54.70
423;DHT22;198;48.752;9.180;2023-07-20T08:24:41;23.40;54.90
423;DHT22;198;48.752;9.180;2023-07-20T08:27:07;23.50;54.60
423;DHT22;198;48.752;9.180;2023-07-20T08:29:33;23.50;54.30
423;DHT22;198;48.752;9.180;2023-07-20T08:31:59;23.50;54.40
423;DHT22;198;48.752;9.180;2023-07-20T08:34:24;23.50;54.40
423;DHT22;198;48.752;9.180;2023-07-20T08:36:50;23.80;54.10
423;DHT22;198;48.752;9.180;2023-07-20T08:39:16;24.00;52.80
423;DHT22;198;48.752;9.180;2023-07-20T08:41:43;24.50;52.50
423;DHT22;198;48.752;9.180;2023-07-20T08:44:09;25.00;50.60
423;DHT22;198;48.752;9.180;2023-07-20T08:46:38;25.50;47.40
423;DHT22;198;48.752;9.180;2023-07-20T08:49:04;25.60;45.70
423;DHT22;198;48.752;9.180;2023-07-20T08:51:30;25.30;46.30
423;DHT22;198;48.752;9.180;2023-07-20T08:53:56;25.20;46.40
423;DHT22;198;48.752;9.180;2023-07-20T08:56:24;25.00;46.90
423;DHT22;198;48.752;9.180;2023-07-20T08:58:54;24.60;47.80
423;DHT22;198;48.752;9.180;2023-07-20T09:01:20;24.40;48.90
423;DHT22;198;48.752;9.180;2023-07-20T09:03:46;24.20;48.90
423;DHT22;198;48.752;9.180;2023-07-20T09:06:12;24.10;49.40
423;DHT22;198;48.752;9.180;2023-07-20T09:08:39;24.10;49.40
423;DHT22;198;48.752;9.180;2023-07-20T09:11:05;24.30;50.40
423;DHT22;198;48.752;9.180;2023-07-20T09:13:32;24.70;49.30
423;DHT22;198;48.752;9.180;2023-07-20T09:15:58;24.80;47.50
423;DHT22;198;48.752;9.180;2023-07-20T09:18:31;24.90;47.90
423;DHT22;198;48.752;9.180;2023-07-20T09:21:05;25.00;48.10
423;DHT22;198;48.752;9.180;2023-07-20T09:23:33;25.30;47.80
423;DHT22;198;48.752;9.180;2023-07-20T09:25:59;25.60;44.90
423;DHT22;198;48.752;9.180;2023-07-20T09:28:25;25.80;45.10
423;DHT22;198;48.752;9.180;2023-07-20T09:30:51;26.30;44.40
423;DHT22;198;48.752;9.180;2023-07-20T09:33:23;26.60;43.30
423;DHT22;198;48.752;9.180;2023-07-20T09:35:49;26.90;42.90
423;DHT22;198;48.752;9.180;2023-07-20T09:38:15;27.00;42.70
423;DHT22;198;48.752;9.180;2023-07-20T09:40:41;27.40;42.60
423;DHT22;198;48.752;9.180;2023-07-20T09:43:10;27.00;41.80
423;DHT22;198;48.752;9.180;2023-07-20T09:45:40;26.60;42.30
423;DHT22;198;48.752;9.180;2023-07-20T09:48:07;26.30;43.60
423;DHT22;198;48.752;9.180;2023-07-20T09:50:33;26.10;44.10
423;DHT22;198;48.752;9.180;2023-07-20T09:53:00;26.10;43.40
423;DHT22;198;48.752;9.180;2023-07-20T09:55:29;26.60;43.90
423;DHT22;198;48.752;9.180;2023-07-20T09:57:56;28.00;40.80
423;DHT22;198;48.752;9.180;2023-07-20T10:00:21;29.20;38.80
423;DHT22;198;48.752;9.180;2023-07-20T10:02:48;30.50;36.20
423;DHT22;198;48.752;9.180;2023-07-20T10:05:15;31.30;34.70
423;DHT22;198;48.752;9.180;2023-07-20T10:07:49;32.30;32.80
423;DHT22;198;48.752;9.180;2023-07-20T10:10:16;33.00;31.00
423;DHT22;198;48.752;9.180;2023-07-20T10:12:43;31.90;31.10
423;DHT22;198;48.752;9.180;2023-07-20T10:17:57;30.10;34.10
423;DHT22;198;48.752;9.180;2023-07-20T10:20:25;29.50;34.60
423;DHT22;198;48.752;9.180;2023-07-20T10:22:53;29.40;35.10
423;DHT22;198;48.752;9.180;2023-07-20T10:25:23;30.20;34.20
423;DHT22;198;48.752;9.180;2023-07-20T10:27:49;30.30;33.20
423;DHT22;198;48.752;9.180;2023-07-20T10:30:15;31.90;33.00
423;DHT22;198;48.752;9.180;2023-07-20T10:32:43;32.80;30.60
423;DHT22;198;48.752;9.180;2023-07-20T10:35:13;33.00;31.00
423;DHT22;198;48.752;9.180;2023-07-20T10:37:49;35.30;28.90
423;DHT22;198;48.752;9.180;2023-07-20T10:41:12;38.00;27.80
423;DHT22;198;48.752;9.180;2023-07-20T10:43:19;41.00;25.00
423;DHT22;198;48.752;9.180;2023-07-20T10:45:49;43.10;22.90
423;DHT22;198;48.752;9.180;2023-07-20T10:48:22;45.20;21.60
423;DHT22;198;48.752;9.180;2023-07-20T10:51:14;45.50;20.40
423;DHT22;198;48.752;9.180;2023-07-20T10:53:44;46.90;19.50
423;DHT22;198;48.752;9.180;2023-07-20T10:56:14;47.00;18.70
423;DHT22;198;48.752;9.180;2023-07-20T10:58:41;47.20;18.40
423;DHT22;198;48.752;9.180;2023-07-20T11:01:08;46.20;18.40
423;DHT22;198;48.752;9.180;2023-07-20T11:03:37;44.90;18.60
423;DHT22;198;48.752;9.180;2023-07-20T11:08:56;41.20;19.90
423;DHT22;198;48.752;9.180;2023-07-20T11:11:27;41.70;20.40
423;DHT22;198;48.752;9.180;2023-07-20T11:14:00;44.40;19.60
423;DHT22;198;48.752;9.180;2023-07-20T11:16:43;47.10;18.10
423;DHT22;198;48.752;9.180;2023-07-20T11:19:15;49.40;16.70
423;DHT22;198;48.752;9.180;2023-07-20T11:21:42;50.70;16.10
423;DHT22;198;48.752;9.180;2023-07-20T11:24:08;50.10;15.70
423;DHT22;198;48.752;9.180;2023-07-20T11:26:51;50.60;15.70
423;DHT22;198;48.752;9.180;2023-07-20T11:29:18;51.30;15.50
423;DHT22;198;48.752;9.180;2023-07-20T11:31:45;51.90;14.80
423;DHT22;198;48.752;9.180;2023-07-20T11:34:15;51.30;14.60
423;DHT22;198;48.752;9.180;2023-07-20T11:36:42;48.30;15.60
423;DHT22;198;48.752;9.180;2023-07-20T11:39:10;48.00;16.60
423;DHT22;198;48.752;9.180;2023-07-20T11:41:35;49.60;15.70
423;DHT22;198;48.752;9.180;2023-07-20T11:44:02;51.40;15.30
423;DHT22;198;48.752;9.180;2023-07-20T11:46:30;50.20;14.70
423;DHT22;198;48.752;9.180;2023-07-20T11:48:59;49.60;15.60
423;DHT22;198;48.752;9.180;2023-07-20T11:51:27;50.80;16.00
423;DHT22;198;48.752;9.180;2023-07-20T11:53:53;50.60;16.00
423;DHT22;198;48.752;9.180;2023-07-20T11:56:18;51.40;15.20
423;DHT22;198;48.752;9.180;2023-07-20T11:58:44;53.00;15.20
423;DHT22;198;48.752;9.180;2023-07-20T12:01:14;51.70;14.90
423;DHT22;198;48.752;9.180;2023-07-20T12:03:42;49.10;15.70
423;DHT22;198;48.752;9.180;2023-07-20T12:06:11;48.10;15.80
423;DHT22;198;48.752;9.180;2023-07-20T12:08:41;49.00;15.50
423;DHT22;198;48.752;9.180;2023-07-20T12:11:07;50.90;14.60
423;DHT22;198;48.752;9.180;2023-07-20T12:13:43;51.30;14.30
423;DHT22;198;48.752;9.180;2023-07-20T12:16:16;52.00;14.10
423;DHT22;198;48.752;9.180;2023-07-20T12:18:42;53.70;14.40
423;DHT22;198;48.752;9.180;2023-07-20T12:21:09;55.00;13.30
423;DHT22;198;48.752;9.180;2023-07-20T12:23:39;55.20;13.50
423;DHT22;198;48.752;9.180;2023-07-20T12:26:14;51.90;13.20
423;DHT22;198;48.752;9.180;2023-07-20T12:28:41;49.70;14.80
423;DHT22;198;48.752;9.180;2023-07-20T12:31:07;51.50;14.50
423;DHT22;198;48.752;9.180;2023-07-20T12:33:33;53.90;14.20
423;DHT22;198;48.752;9.180;2023-07-20T12:36:00;55.70;13.30
423;DHT22;198;48.752;9.180;2023-07-20T12:38:26;56.10;13.10
423;DHT22;198;48.752;9.180;2023-07-20T12:40:53;56.30;13.00
423;DHT22;198;48.752;9.180;2023-07-20T12:43:20;56.50;13.40
423;DHT22;198;48.752;9.180;2023-07-20T12:45:46;56.80;12.60
423;DHT22;198;48.752;9.180;2023-07-20T12:48:12;56.80;12.40
423;DHT22;198;48.752;9.180;2023-07-20T12:50:38;57.10;12.40
423;DHT22;198;48.752;9.180;2023-07-20T12:53:03;57.60;12.60
423;DHT22;198;48.752;9.180;2023-07-20T12:55:29;57.70;12.60
423;DHT22;198;48.752;9.180;2023-07-20T12:57:55;58.40;12.10
423;DHT22;198;48.752;9.180;2023-07-20T13:00:20;58.80;11.70
423;DHT22;198;48.752;9.180;2023-07-20T13:02:48;57.20;12.30
423;DHT22;198;48.752;9.180;2023-07-20T13:05:14;57.40;12.10
423;DHT22;198;48.752;9.180;2023-07-20T13:07:41;57.80;12.60
423;DHT22;198;48.752;9.180;2023-07-20T13:10:07;58.80;12.80
423;DHT22;198;48.752;9.180;2023-07-20T13:12:33;58.40;11.70
423;DHT22;198;48.752;9.180;2023-07-20T13:15:01;56.30;12.50
423;DHT22;198;48.752;9.180;2023-07-20T13:17:27;55.50;12.40
423;DHT22;198;48.752;9.180;2023-07-20T13:19:53;55.80;13.00
423;DHT22;198;48.752;9.180;2023-07-20T13:22:19;56.30;12.00
423;DHT22;198;48.752;9.180;2023-07-20T13:24:45;56.50;12.20
423;DHT22;198;48.752;9.180;2023-07-20T13:27:15;56.80;12.40
423;DHT22;198;48.752;9.180;2023-07-20T13:29:40;57.10;12.20
423;DHT22;198;48.752;9.180;2023-07-20T13:32:07;56.60;11.90
423;DHT22;198;48.752;9.180;2023-07-20T13:34:32;56.80;12.00
423;DHT22;198;48.752;9.180;2023-07-20T13:36:58;57.10;12.00
423;DHT22;198;48.752;9.180;2023-07-20T13:39:24;56.50;11.90
423;DHT22;198;48.752;9.180;2023-07-20T13:41:52;56.60;11.90
423;DHT22;198;48.752;9.180;2023-07-20T13:44:17;57.30;12.20
423;DHT22;198;48.752;9.180;2023-07-20T13:46:43;57.40;11.50
423;DHT22;198;48.752;9.180;2023-07-20T13:49:08;55.30;12.70
423;DHT22;198;48.752;9.180;2023-07-20T13:51:34;55.00;12.50
423;DHT22;198;48.752;9.180;2023-07-20T13:54:00;52.60;12.50
423;DHT22;198;48.752;9.180;2023-07-20T13:56:26;50.10;13.50
423;DHT22;198;48.752;9.180;2023-07-20T13:58:52;47.80;14.00
423;DHT22;198;48.752;9.180;2023-07-20T14:01:18;48.20;14.30
423;DHT22;198;48.752;9.180;2023-07-20T14:03:44;49.70;13.90
423;DHT22;198;48.752;9.180;2023-07-20T14:06:10;50.40;13.50
423;DHT22;198;48.752;9.180;2023-07-20T14:08:37;51.50;13.50
423;DHT22;198;48.752;9.180;2023-07-20T14:11:03;52.70;13.30
423;DHT22;198;48.752;9.180;2023-07-20T14:13:28;54.10;13.60
423;DHT22;198;48.752;9.180;2023-07-20T14:15:54;55.70;13.00
423;DHT22;198;48.752;9.180;2023-07-20T14:18:19;56.50;12.10
423;DHT22;198;48.752;9.180;2023-07-20T14:20:45;57.10;12.20
423;DHT22;198;48.752;9.180;2023-07-20T14:23:11;57.10;12.50
423;DHT22;198;48.752;9.180;2023-07-20T14:25:36;57.40;11.60
423;DHT22;198;48.752;9.180;2023-07-20T14:28:02;56.80;11.80
423;DHT22;198;48.752;9.180;2023-07-20T14:30:27;56.60;11.60
423;DHT22;198;48.752;9.180;2023-07-20T14:32:53;56.20;12.20
423;DHT22;198;48.752;9.180;2023-07-20T14:35:18;55.90;11.70
423;DHT22;198;48.752;9.180;2023-07-20T14:37:45;55.60;11.80
423;DHT22;198;48.752;9.180;2023-07-20T14:40:12;55.70;11.70
423;DHT22;198;48.752;9.180;2023-07-20T14:42:38;55.30;11.80
423;DHT22;198;48.752;9.180;2023-07-20T14:45:04;53.80;11.70
423;DHT22;198;48.752;9.180;2023-07-20T14:47:31;53.30;12.40
423;DHT22;198;48.752;9.180;2023-07-20T14:50:00;54.10;12.60
423;DHT22;198;48.752;9.180;2023-07-20T14:52:27;54.80;12.70
423;DHT22;198;48.752;9.180;2023-07-20T14:54:53;55.20;12.10
423;DHT22;198;48.752;9.180;2023-07-20T14:57:19;55.00;12.80
423;DHT22;198;48.752;9.180;2023-07-20T14:59:46;54.80;12.40
423;DHT22;198;48.752;9.180;2023-07-20T15:02:11;54.90;12.70
423;DHT22;198;48.752;9.180;2023-07-20T15:04:37;54.80;11.90
423;DHT22;198;48.752;9.180;2023-07-20T15:07:03;53.80;12.50
423;DHT22;198;48.752;9.180;2023-07-20T15:09:28;53.50;12.30
423;DHT22;198;48.752;9.180;2023-07-20T15:11:54;52.70;12.90
423;DHT22;198;48.752;9.180;2023-07-20T15:14:19;51.90;12.80
423;DHT22;198;48.752;9.180;2023-07-20T15:16:45;52.00;13.00
423;DHT22;198;48.752;9.180;2023-07-20T15:19:11;52.10;13.20
423;DHT22;198;48.752;9.180;2023-07-20T15:21:38;51.60;13.00
423;DHT22;198;48.752;9.180;2023-07-20T15:24:05;51.00;12.80
423;DHT22;198;48.752;9.180;2023-07-20T15:26:30;51.10;13.30
423;DHT22;198;48.752;9.180;2023-07-20T15:28:58;50.60;13.60
423;DHT22;198;48.752;9.180;2023-07-20T15:31:23;50.40;13.10
423;DHT22;198;48.752;9.180;2023-07-20T15:33:49;50.10;13.20
423;DHT22;198;48.752;9.180;2023-07-20T15:36:15;49.50;14.00
423;DHT22;198;48.752;9.180;2023-07-20T15:38:40;49.80;13.60
423;DHT22;198;48.752;9.180;2023-07-20T15:41:06;50.10;13.80
423;DHT22;198;48.752;9.180;2023-07-20T15:43:31;50.10;13.30
423;DHT22;198;48.752;9.180;2023-07-20T15:48:48;49.00;13.70
423;DHT22;198;48.752;9.180;2023-07-20T15:51:14;48.90;13.40
423;DHT22;198;48.752;9.180;2023-07-20T15:53:40;49.10;13.40
423;DHT22;198;48.752;9.180;2023-07-20T15:56:06;49.40;13.20
423;DHT22;198;48.752;9.180;2023-07-20T15:58:32;49.50;13.90
423;DHT22;198;48.752;9.180;2023-07-20T16:00:58;48.90;13.50
423;DHT22;198;48.752;9.180;2023-07-20T16:03:23;48.50;14.10
423;DHT22;198;48.752;9.180;2023-07-20T16:05:55;47.90;14.00
423;DHT22;198;48.752;9.180;2023-07-20T16:08:20;46.60;14.20
423;DHT22;198;48.752;9.180;2023-07-20T16:10:46;44.90;14.50
423;DHT22;198;48.752;9.180;2023-07-20T16:13:11;44.10;15.10
423;DHT22;198;48.752;9.180;2023-07-20T16:15:37;42.60;15.60
423;DHT22;198;48.752;9.180;2023-07-20T16:18:03;41.00;16.60
423;DHT22;198;48.752;9.180;2023-07-20T16:20:28;40.70;17.10
423;DHT22;198;48.752;9.180;2023-07-20T16:22:54;40.80;17.50
423;DHT22;198;48.752;9.180;2023-07-20T16:25:20;41.10;17.10
423;DHT22;198;48.752;9.180;2023-07-20T16:27:45;41.20;16.80
423;DHT22;198;48.752;9.180;2023-07-20T16:30:11;40.80;17.30
423;DHT22;198;48.752;9.180;2023-07-20T16:32:40;40.60;17.90
423;DHT22;198;48.752;9.180;2023-07-20T16:35:07;40.80;17.60
423;DHT22;198;48.752;9.180;2023-07-20T16:37:33;41.10;17.60
423;DHT22;198;48.752;9.180;2023-07-20T16:39:58;41.10;17.00
423;DHT22;198;48.752;9.180;2023-07-20T16:42:24;40.30;17.50
423;DHT22;198;48.752;9.180;2023-07-20T16:44:51;39.90;17.60